sensor_id;sensor_type;location;lat;lon;timestamp;P1;durP1;ratioP1;P2;durP2;ratioP2
77984;SDS011;67177;47.240;-1.546;2023-04-25T00:02:15;5.40;;;1.50;;
77984;SDS011;67177;47.240;-1.546;2023-04-25T00:04:41;6.22;;;1.58;;
77984;SDS011;67177;47.240;-1.546;2023-04-25T00:07:07;4.67;;;1.20;;
77984;SDS011;67177;47.240;-1.546;2023-04-25T00:09:32;3.80;;;1.17;;
77984;SDS011;67177;47.240;-1.546;2023-04-25T00:11:58;4.55;;;1.30;;
77984;SDS011;67177;47.240;-1.546;2023-04-25T00:14:24;4.87;;;1.33;;
77984;SDS011;67177;47.240;-1.546;2023-04-25T00:16:50;4.32;;;1.40;;
77984;SDS011;67177;47.240;-1.546;2023-04-25T00:19:17;4.20;;;1.30;;
77984;SDS011;67177;47.240;-1.546;2023-04-25T00:21:42;4.77;;;1.30;;
77984;SDS011;67177;47.240;-1.546;2023-04-25T00:24:10;4.57;;;1.17;;
77984;SDS011;67177;47.240;-1.546;2023-04-25T00:26:35;5.90;;;1.60;;
77984;SDS011;67177;47.240;-1.546;2023-04-25T00:29:01;5.13;;;1.50;;
77984;SDS011;67177;47.240;-1.546;2023-04-25T00:31:27;4.95;;;1.50;;
77984;SDS011;67177;47.240;-1.546;2023-04-25T00:33:54;4.60;;;1.48;;
77984;SDS011;67177;47.240;-1.546;2023-04-25T00:36:19;4.03;;;1.40;;
77984;SDS011;67177;47.240;-1.546;2023-04-25T00:38:45;3.85;;;1.40;;
77984;SDS011;67177;47.240;-1.546;2023-04-25T00:41:11;5.20;;;1.17;;
77984;SDS011;67177;47.240;-1.546;2023-04-25T00:43:37;5.35;;;1.30;;
77984;SDS011;67177;47.240;-1.546;2023-04-25T00:46:04;6.30;;;1.80;;
77984;SDS011;67177;47.240;-1.546;2023-04-25T00:48:30;4.43;;;1.63;;
77984;SDS011;67177;47.240;-1.546;2023-04-25T00:50:59;6.15;;;1.58;;
77984;SDS011;67177;47.240;-1.546;2023-04-25T00:53:26;4.47;;;1.60;;
77984;SDS011;67177;47.240;-1.546;2023-04-25T00:55:52;5.32;;;1.33;;
77984;SDS011;67177;47.240;-1.546;2023-04-25T00:58:19;5.78;;;1.60;;
77984;SDS011;67177;47.240;-1.546;2023-04-25T01:00:47;5.97;;;1.58;;
77984;SDS011;67177;47.240;-1.546;2023-04-25T01:03:14;4.40;;;1.48;;
77984;SDS011;67177;47.240;-1.546;2023-04-25T01:05:45;4.23;;;1.27;;
77984;SDS011;67177;47.240;-1.546;2023-04-25T01:08:12;3.83;;;1.17;;
77984;SDS011;67177;47.240;-1.546;2023-04-25T01:10:38;4.82;;;1.45;;
77984;SDS011;67177;47.240;-1.546;2023-04-25T01:13:04;4.90;;;1.20;;
77984;SDS011;67177;47.240;-1.546;2023-04-25T01:15:31;4.80;;;1.00;;
77984;SDS011;67177;47.240;-1.546;2023-04-25T01:17:57;4.10;;;1.20;;
77984;SDS011;67177;47.240;-1.546;2023-04-25T01:20:25;4.45;;;1.13;;
77984;SDS011;67177;47.240;-1.546;2023-04-25T01:22:53;4.18;;;1.30;;
77984;SDS011;67177;47.240;-1.546;2023-04-25T01:25:20;3.77;;;1.17;;
77984;SDS011;67177;47.240;-1.546;2023-04-25T01:27:47;4.50;;;1.20;;
77984;SDS011;67177;47.240;-1.546;2023-04-25T01:30:13;4.03;;;1.23;;
77984;SDS011;67177;47.240;-1.546;2023-04-25T01:32:39;3.53;;;1.08;;
77984;SDS011;67177;47.240;-1.546;2023-04-25T01:35:07;2.87;;;0.80;;
77984;SDS011;67177;47.240;-1.546;2023-04-25T01:37:38;3.97;;;1.17;;
77984;SDS011;67177;47.240;-1.546;2023-04-25T01:40:05;3.13;;;0.90;;
77984;SDS011;67177;47.240;-1.546;2023-04-25T01:42:32;3.58;;;1.05;;
77984;SDS011;67177;47.240;-1.546;2023-04-25T01:44:59;2.95;;;1.00;;
77984;SDS011;67177;47.240;-1.546;2023-04-25T01:47:25;3.47;;;0.90;;
77984;SDS011;67177;47.240;-1.546;2023-04-25T01:49:50;3.33;;;0.90;;
77984;SDS011;67177;47.240;-1.546;2023-04-25T01:52:16;3.50;;;1.10;;
77984;SDS011;67177;47.240;-1.546;2023-04-25T01:54:42;2.63;;;0.90;;
77984;SDS011;67177;47.240;-1.546;2023-04-25T01:57:10;2.58;;;0.80;;
77984;SDS011;67177;47.240;-1.546;2023-04-25T01:59:36;3.25;;;0.85;;
77984;SDS011;67177;47.240;-1.546;2023-04-25T02:02:02;3.38;;;0.90;;
77984;SDS011;67177;47.240;-1.546;2023-04-25T02:04:31;2.47;;;0.60;;
77984;SDS011;67177;47.240;-1.546;2023-04-25T02:06:57;2.73;;;0.80;;
77984;SDS011;67177;47.240;-1.546;2023-04-25T02:09:23;2.42;;;0.70;;
77984;SDS011;67177;47.240;-1.546;2023-04-25T02:11:49;2.53;;;0.80;;
77984;SDS011;67177;47.240;-1.546;2023-04-25T02:14:14;2.28;;;0.70;;
77984;SDS011;67177;47.240;-1.546;2023-04-25T02:16:40;2.33;;;0.70;;
77984;SDS011;67177;47.240;-1.546;2023-04-25T02:19:08;2.03;;;0.70;;
77984;SDS011;67177;47.240;-1.546;2023-04-25T02:21:34;2.45;;;0.60;;
77984;SDS011;67177;47.240;-1.546;2023-04-25T02:24:01;2.42;;;0.70;;
77984;SDS011;67177;47.240;-1.546;2023-04-25T02:26:26;1.88;;;0.60;;
77984;SDS011;67177;47.240;-1.546;2023-04-25T02:28:52;2.03;;;0.60;;
77984;SDS011;67177;47.240;-1.546;2023-04-25T02:31:18;2.70;;;0.80;;
77984;SDS011;67177;47.240;-1.546;2023-04-25T02:33:43;2.38;;;0.70;;
77984;SDS011;67177;47.240;-1.546;2023-04-25T02:36:09;2.33;;;0.70;;
77984;SDS011;67177;47.240;-1.546;2023-04-25T02:38:35;2.17;;;0.60;;
77984;SDS011;67177;47.240;-1.546;2023-04-25T02:41:01;2.00;;;0.60;;
77984;SDS011;67177;47.240;-1.546;2023-04-25T02:43:26;2.08;;;0.60;;
77984;SDS011;67177;47.240;-1.546;2023-04-25T02:45:52;1.90;;;0.60;;
77984;SDS011;67177;47.240;-1.546;2023-04-25T02:48:17;2.83;;;0.73;;
77984;SDS011;67177;47.240;-1.546;2023-04-25T02:50:43;1.60;;;0.50;;
77984;SDS011;67177;47.240;-1.546;2023-04-25T02:53:10;2.22;;;0.60;;
77984;SDS011;67177;47.240;-1.546;2023-04-25T02:55:35;2.17;;;0.60;;
77984;SDS011;67177;47.240;-1.546;2023-04-25T02:58:01;2.05;;;0.50;;
77984;SDS011;67177;47.240;-1.546;2023-04-25T03:00:27;1.73;;;0.60;;
77984;SDS011;67177;47.240;-1.546;2023-04-25T03:02:52;2.38;;;0.52;;
77984;SDS011;67177;47.240;-1.546;2023-04-25T03:05:18;1.40;;;0.40;;
77984;SDS011;67177;47.240;-1.546;2023-04-25T03:07:44;2.40;;;0.60;;
77984;SDS011;67177;47.240;-1.546;2023-04-25T03:10:10;1.73;;;0.52;;
77984;SDS011;67177;47.240;-1.546;2023-04-25T03:12:36;1.98;;;0.70;;
77984;SDS011;67177;47.240;-1.546;2023-04-25T03:15:02;1.97;;;0.60;;
77984;SDS011;67177;47.240;-1.546;2023-04-25T03:17:28;2.20;;;0.60;;
77984;SDS011;67177;47.240;-1.546;2023-04-25T03:19:54;2.10;;;0.60;;
77984;SDS011;67177;47.240;-1.546;2023-04-25T03:22:20;1.80;;;0.60;;
77984;SDS011;67177;47.240;-1.546;2023-04-25T03:24:46;2.03;;;0.57;;
77984;SDS011;67177;47.240;-1.546;2023-04-25T03:27:12;2.10;;;0.60;;
77984;SDS011;67177;47.240;-1.546;2023-04-25T03:29:38;2.40;;;0.60;;
77984;SDS011;67177;47.240;-1.546;2023-04-25T03:32:03;1.83;;;0.57;;
77984;SDS011;67177;47.240;-1.546;2023-04-25T03:34:29;2.30;;;0.70;;
77984;SDS011;67177;47.240;-1.546;2023-04-25T03:36:55;2.60;;;0.50;;
77984;SDS011;67177;47.240;-1.546;2023-04-25T03:39:21;1.93;;;0.67;;
77984;SDS011;67177;47.240;-1.546;2023-04-25T03:41:46;1.83;;;0.60;;
77984;SDS011;67177;47.240;-1.546;2023-04-25T03:44:12;1.60;;;0.50;;
77984;SDS011;67177;47.240;-1.546;2023-04-25T03:46:38;2.08;;;0.60;;
77984;SDS011;67177;47.240;-1.546;2023-04-25T03:49:04;2.57;;;0.80;;
77984;SDS011;67177;47.240;-1.546;2023-04-25T03:51:29;2.17;;;0.63;;
77984;SDS011;67177;47.240;-1.546;2023-04-25T03:53:55;1.83;;;0.50;;
77984;SDS011;67177;47.240;-1.546;2023-04-25T03:56:21;1.70;;;0.52;;
77984;SDS011;67177;47.240;-1.546;2023-04-25T03:58:47;2.03;;;0.60;;
77984;SDS011;67177;47.240;-1.546;2023-04-25T04:01:13;2.60;;;0.50;;
77984;SDS011;67177;47.240;-1.546;2023-04-25T04:03:38;1.93;;;0.60;;
77984;SDS011;67177;47.240;-1.546;2023-04-25T04:06:04;2.13;;;0.55;;
77984;SDS011;67177;47.240;-1.546;2023-04-25T04:08:31;2.30;;;0.60;;
77984;SDS011;67177;47.240;-1.546;2023-04-25T04:10:57;2.60;;;0.70;;
77984;SDS011;67177;47.240;-1.546;2023-04-25T04:13:25;2.55;;;0.77;;
77984;SDS011;67177;47.240;-1.546;2023-04-25T04:15:51;3.17;;;0.82;;
77984;SDS011;67177;47.240;-1.546;2023-04-25T04:18:17;2.53;;;0.70;;
77984;SDS011;67177;47.240;-1.546;2023-04-25T04:20:43;2.42;;;0.68;;
77984;SDS011;67177;47.240;-1.546;2023-04-25T04:23:08;3.53;;;0.80;;
77984;SDS011;67177;47.240;-1.546;2023-04-25T04:25:34;2.15;;;0.65;;
77984;SDS011;67177;47.240;-1.546;2023-04-25T04:28:00;2.20;;;0.70;;
77984;SDS011;67177;47.240;-1.546;2023-04-25T04:30:26;2.08;;;0.60;;
77984;SDS011;67177;47.240;-1.546;2023-04-25T04:32:55;2.13;;;0.70;;
77984;SDS011;67177;47.240;-1.546;2023-04-25T04:35:21;1.80;;;0.60;;
77984;SDS011;67177;47.240;-1.546;2023-04-25T04:37:48;2.03;;;0.60;;
77984;SDS011;67177;47.240;-1.546;2023-04-25T04:40:14;2.33;;;0.60;;
77984;SDS011;67177;47.240;-1.546;2023-04-25T04:42:41;1.73;;;0.70;;
77984;SDS011;67177;47.240;-1.546;2023-04-25T04:45:07;2.70;;;0.60;;
77984;SDS011;67177;47.240;-1.546;2023-04-25T04:47:33;2.15;;;0.70;;
77984;SDS011;67177;47.240;-1.546;2023-04-25T04:50:01;1.90;;;0.60;;
77984;SDS011;67177;47.240;-1.546;2023-04-25T04:52:28;2.20;;;0.60;;
77984;SDS011;67177;47.240;-1.546;2023-04-25T04:54:53;2.67;;;0.75;;
77984;SDS011;67177;47.240;-1.546;2023-04-25T04:57:19;2.27;;;0.70;;
77984;SDS011;67177;47.240;-1.546;2023-04-25T04:59:45;2.28;;;0.70;;
77984;SDS011;67177;47.240;-1.546;2023-04-25T05:02:10;2.23;;;0.60;;
77984;SDS011;67177;47.240;-1.546;2023-04-25T05:04:36;2.78;;;0.80;;
77984;SDS011;67177;47.240;-1.546;2023-04-25T05:07:02;2.33;;;0.70;;
77984;SDS011;67177;47.240;-1.546;2023-04-25T05:09:27;1.93;;;0.60;;
77984;SDS011;67177;47.240;-1.546;2023-04-25T05:11:53;1.90;;;0.70;;
77984;SDS011;67177;47.240;-1.546;2023-04-25T05:14:19;2.50;;;0.70;;
77984;SDS011;67177;47.240;-1.546;2023-04-25T05:16:44;2.33;;;0.70;;
77984;SDS011;67177;47.240;-1.546;2023-04-25T05:19:10;2.07;;;0.70;;
77984;SDS011;67177;47.240;-1.546;2023-04-25T05:21:36;2.20;;;0.70;;
77984;SDS011;67177;47.240;-1.546;2023-04-25T05:24:01;1.88;;;0.50;;
77984;SDS011;67177;47.240;-1.546;2023-04-25T05:26:27;1.93;;;0.50;;
77984;SDS011;67177;47.240;-1.546;2023-04-25T05:28:56;1.98;;;0.60;;
77984;SDS011;67177;47.240;-1.546;2023-04-25T05:31:22;2.30;;;0.65;;
77984;SDS011;67177;47.240;-1.546;2023-04-25T05:33:48;2.70;;;0.60;;
77984;SDS011;67177;47.240;-1.546;2023-04-25T05:36:13;2.47;;;0.70;;
77984;SDS011;67177;47.240;-1.546;2023-04-25T05:38:39;3.57;;;0.60;;
77984;SDS011;67177;47.240;-1.546;2023-04-25T05:41:05;2.72;;;0.63;;
77984;SDS011;67177;47.240;-1.546;2023-04-25T05:43:30;2.80;;;0.90;;
77984;SDS011;67177;47.240;-1.546;2023-04-25T05:45:56;2.58;;;0.68;;
77984;SDS011;67177;47.240;-1.546;2023-04-25T05:48:22;3.45;;;1.08;;
77984;SDS011;67177;47.240;-1.546;2023-04-25T05:50:47;3.60;;;0.90;;
77984;SDS011;67177;47.240;-1.546;2023-04-25T05:53:13;2.65;;;0.75;;
77984;SDS011;67177;47.240;-1.546;2023-04-25T05:55:38;4.33;;;1.10;;
77984;SDS011;67177;47.240;-1.546;2023-04-25T05:58:05;4.47;;;1.10;;
77984;SDS011;67177;47.240;-1.546;2023-04-25T06:00:31;3.60;;;1.10;;
77984;SDS011;67177;47.240;-1.546;2023-04-25T06:02:57;3.28;;;0.90;;
77984;SDS011;67177;47.240;-1.546;2023-04-25T06:05:22;3.83;;;0.90;;
77984;SDS011;67177;47.240;-1.546;2023-04-25T06:07:48;2.70;;;1.00;;
77984;SDS011;67177;47.240;-1.546;2023-04-25T06:10:13;6.13;;;1.42;;
77984;SDS011;67177;47.240;-1.546;2023-04-25T06:12:40;3.30;;;1.10;;
77984;SDS011;67177;47.240;-1.546;2023-04-25T06:15:05;3.43;;;1.10;;
77984;SDS011;67177;47.240;-1.546;2023-04-25T06:17:32;2.90;;;0.93;;
77984;SDS011;67177;47.240;-1.546;2023-04-25T06:19:58;3.70;;;1.00;;
77984;SDS011;67177;47.240;-1.546;2023-04-25T06:22:23;3.70;;;0.90;;
77984;SDS011;67177;47.240;-1.546;2023-04-25T06:24:49;3.38;;;1.05;;
77984;SDS011;67177;47.240;-1.546;2023-04-25T06:27:15;2.73;;;0.70;;
77984;SDS011;67177;47.240;-1.546;2023-04-25T06:29:40;3.27;;;1.10;;
77984;SDS011;67177;47.240;-1.546;2023-04-25T06:32:06;2.95;;;0.90;;
77984;SDS011;67177;47.240;-1.546;2023-04-25T06:34:32;4.73;;;1.10;;
77984;SDS011;67177;47.240;-1.546;2023-04-25T06:36:57;3.08;;;1.00;;
77984;SDS011;67177;47.240;-1.546;2023-04-25T06:39:23;4.37;;;1.00;;
77984;SDS011;67177;47.240;-1.546;2023-04-25T06:41:50;3.92;;;1.20;;
77984;SDS011;67177;47.240;-1.546;2023-04-25T06:44:16;4.87;;;1.10;;
77984;SDS011;67177;47.240;-1.546;2023-04-25T06:46:41;5.93;;;1.10;;
77984;SDS011;67177;47.240;-1.546;2023-04-25T06:49:07;4.23;;;1.20;;
77984;SDS011;67177;47.240;-1.546;2023-04-25T06:51:34;3.53;;;1.00;;
77984;SDS011;67177;47.240;-1.546;2023-04-25T06:54:00;3.55;;;1.17;;
77984;SDS011;67177;47.240;-1.546;2023-04-25T06:56:25;3.77;;;1.20;;
77984;SDS011;67177;47.240;-1.546;2023-04-25T06:58:51;5.20;;;1.38;;
77984;SDS011;67177;47.240;-1.546;2023-04-25T07:01:17;5.00;;;1.20;;
77984;SDS011;67177;47.240;-1.546;2023-04-25T07:03:43;4.47;;;1.35;;
77984;SDS011;67177;47.240;-1.546;2023-04-25T07:06:08;7.00;;;1.43;;
77984;SDS011;67177;47.240;-1.546;2023-04-25T07:08:34;4.80;;;1.40;;
77984;SDS011;67177;47.240;-1.546;2023-04-25T07:11:00;4.07;;;1.40;;
77984;SDS011;67177;47.240;-1.546;2023-04-25T07:13:25;4.47;;;1.20;;
77984;SDS011;67177;47.240;-1.546;2023-04-25T07:15:51;4.05;;;1.40;;
77984;SDS011;67177;47.240;-1.546;2023-04-25T07:18:16;4.13;;;1.27;;
77984;SDS011;67177;47.240;-1.546;2023-04-25T07:20:42;4.68;;;1.33;;
77984;SDS011;67177;47.240;-1.546;2023-04-25T07:23:08;4.10;;;1.53;;
77984;SDS011;67177;47.240;-1.546;2023-04-25T07:25:33;4.57;;;1.40;;
77984;SDS011;67177;47.240;-1.546;2023-04-25T07:28:00;3.67;;;1.30;;
77984;SDS011;67177;47.240;-1.546;2023-04-25T07:30:25;4.82;;;1.40;;
77984;SDS011;67177;47.240;-1.546;2023-04-25T07:32:51;4.17;;;1.37;;
77984;SDS011;67177;47.240;-1.546;2023-04-25T07:35:17;5.33;;;1.40;;
77984;SDS011;67177;47.240;-1.546;2023-04-25T07:37:43;4.45;;;1.30;;
77984;SDS011;67177;47.240;-1.546;2023-04-25T07:40:08;4.85;;;1.38;;
77984;SDS011;67177;47.240;-1.546;2023-04-25T07:42:34;3.93;;;1.20;;
77984;SDS011;67177;47.240;-1.546;2023-04-25T07:45:00;5.30;;;1.20;;
77984;SDS011;67177;47.240;-1.546;2023-04-25T07:47:27;3.00;;;1.10;;
77984;SDS011;67177;47.240;-1.546;2023-04-25T07:49:53;3.00;;;1.00;;
77984;SDS011;67177;47.240;-1.546;2023-04-25T07:52:19;3.80;;;1.33;;
77984;SDS011;67177;47.240;-1.546;2023-04-25T07:54:44;4.70;;;1.50;;
77984;SDS011;67177;47.240;-1.546;2023-04-25T07:57:10;5.07;;;1.50;;
77984;SDS011;67177;47.240;-1.546;2023-04-25T07:59:36;3.97;;;1.13;;
77984;SDS011;67177;47.240;-1.546;2023-04-25T08:02:01;5.25;;;1.42;;
77984;SDS011;67177;47.240;-1.546;2023-04-25T08:04:27;4.13;;;1.50;;
77984;SDS011;67177;47.240;-1.546;2023-04-25T08:06:53;3.83;;;1.30;;
77984;SDS011;67177;47.240;-1.546;2023-04-25T08:09:19;4.65;;;1.17;;
77984;SDS011;67177;47.240;-1.546;2023-04-25T08:11:45;3.75;;;1.10;;
77984;SDS011;67177;47.240;-1.546;2023-04-25T08:14:11;4.25;;;1.20;;
77984;SDS011;67177;47.240;-1.546;2023-04-25T08:16:38;4.85;;;1.40;;
77984;SDS011;67177;47.240;-1.546;2023-04-25T08:19:04;3.47;;;1.10;;
77984;SDS011;67177;47.240;-1.546;2023-04-25T08:21:30;3.40;;;1.13;;
77984;SDS011;67177;47.240;-1.546;2023-04-25T08:23:56;4.55;;;1.30;;
77984;SDS011;67177;47.240;-1.546;2023-04-25T08:26:23;3.97;;;1.05;;
77984;SDS011;67177;47.240;-1.546;2023-04-25T08:28:49;3.87;;;1.27;;
77984;SDS011;67177;47.240;-1.546;2023-04-25T08:31:15;3.30;;;1.13;;
77984;SDS011;67177;47.240;-1.546;2023-04-25T08:33:41;7.80;;;2.20;;
77984;SDS011;67177;47.240;-1.546;2023-04-25T08:36:07;6.53;;;1.80;;
77984;SDS011;67177;47.240;-1.546;2023-04-25T08:38:33;4.75;;;1.60;;
77984;SDS011;67177;47.240;-1.546;2023-04-25T08:40:58;5.07;;;1.57;;
77984;SDS011;67177;47.240;-1.546;2023-04-25T08:43:25;4.60;;;1.45;;
77984;SDS011;67177;47.240;-1.546;2023-04-25T08:45:53;5.25;;;1.40;;
77984;SDS011;67177;47.240;-1.546;2023-04-25T08:48:24;6.70;;;1.50;;
77984;SDS011;67177;47.240;-1.546;2023-04-25T08:50:53;4.87;;;1.50;;
77984;SDS011;67177;47.240;-1.546;2023-04-25T08:53:25;4.72;;;1.42;;
77984;SDS011;67177;47.240;-1.546;2023-04-25T08:55:52;6.97;;;1.90;;
77984;SDS011;67177;47.240;-1.546;2023-04-25T08:58:20;5.13;;;1.33;;
77984;SDS011;67177;47.240;-1.546;2023-04-25T09:00:46;4.82;;;1.80;;
77984;SDS011;67177;47.240;-1.546;2023-04-25T09:03:13;4.73;;;1.77;;
77984;SDS011;67177;47.240;-1.546;2023-04-25T09:05:40;5.28;;;1.60;;
77984;SDS011;67177;47.240;-1.546;2023-04-25T09:08:06;4.15;;;1.48;;
77984;SDS011;67177;47.240;-1.546;2023-04-25T09:10:32;4.47;;;1.50;;
77984;SDS011;67177;47.240;-1.546;2023-04-25T09:13:08;5.50;;;1.50;;
77984;SDS011;67177;47.240;-1.546;2023-04-25T09:15:48;4.15;;;1.50;;
77984;SDS011;67177;47.240;-1.546;2023-04-25T09:18:25;4.15;;;1.48;;
77984;SDS011;67177;47.240;-1.546;2023-04-25T09:20:52;5.30;;;1.40;;
77984;SDS011;67177;47.240;-1.546;2023-04-25T09:23:20;4.43;;;1.40;;
77984;SDS011;67177;47.240;-1.546;2023-04-25T09:25:47;5.72;;;1.60;;
77984;SDS011;67177;47.240;-1.546;2023-04-25T09:28:13;6.88;;;1.90;;
77984;SDS011;67177;47.240;-1.546;2023-04-25T09:30:39;6.20;;;1.90;;
77984;SDS011;67177;47.240;-1.546;2023-04-25T09:33:05;5.72;;;1.60;;
77984;SDS011;67177;47.240;-1.546;2023-04-25T09:35:36;3.83;;;1.30;;
77984;SDS011;67177;47.240;-1.546;2023-04-25T09:38:13;4.17;;;1.37;;
77984;SDS011;67177;47.240;-1.546;2023-04-25T09:40:43;4.68;;;1.15;;
77984;SDS011;67177;47.240;-1.546;2023-04-25T09:43:19;4.00;;;1.30;;
77984;SDS011;67177;47.240;-1.546;2023-04-25T09:45:46;4.10;;;1.30;;
77984;SDS011;67177;47.240;-1.546;2023-04-25T09:48:16;4.40;;;1.27;;
77984;SDS011;67177;47.240;-1.546;2023-04-25T09:50:44;4.70;;;1.30;;
77984;SDS011;67177;47.240;-1.546;2023-04-25T09:53:10;4.28;;;1.70;;
77984;SDS011;67177;47.240;-1.546;2023-04-25T09:55:36;4.72;;;1.58;;
77984;SDS011;67177;47.240;-1.546;2023-04-25T09:58:05;5.77;;;1.60;;
77984;SDS011;67177;47.240;-1.546;2023-04-25T10:00:34;4.40;;;1.38;;
77984;SDS011;67177;47.240;-1.546;2023-04-25T10:03:03;6.00;;;1.50;;
77984;SDS011;67177;47.240;-1.546;2023-04-25T10:05:32;3.63;;;1.10;;
77984;SDS011;67177;47.240;-1.546;2023-04-25T10:08:01;3.85;;;1.20;;
77984;SDS011;67177;47.240;-1.546;2023-04-25T10:10:29;3.70;;;1.40;;
77984;SDS011;67177;47.240;-1.546;2023-04-25T10:12:57;4.03;;;1.60;;
77984;SDS011;67177;47.240;-1.546;2023-04-25T10:15:24;3.50;;;1.40;;
77984;SDS011;67177;47.240;-1.546;2023-04-25T10:17:50;3.13;;;1.10;;
77984;SDS011;67177;47.240;-1.546;2023-04-25T10:20:15;3.17;;;1.17;;
77984;SDS011;67177;47.240;-1.546;2023-04-25T10:22:44;3.88;;;1.30;;
77984;SDS011;67177;47.240;-1.546;2023-04-25T10:25:13;4.10;;;1.30;;
77984;SDS011;67177;47.240;-1.546;2023-04-25T10:27:39;3.47;;;1.17;;
77984;SDS011;67177;47.240;-1.546;2023-04-25T10:30:09;3.38;;;1.20;;
77984;SDS011;67177;47.240;-1.546;2023-04-25T10:32:39;4.35;;;1.30;;
77984;SDS011;67177;47.240;-1.546;2023-04-25T10:35:13;3.50;;;1.08;;
77984;SDS011;67177;47.240;-1.546;2023-04-25T10:40:40;3.33;;;1.07;;
77984;SDS011;67177;47.240;-1.546;2023-04-25T10:45:56;2.80;;;0.93;;
77984;SDS011;67177;47.240;-1.546;2023-04-25T10:48:27;4.22;;;1.10;;
77984;SDS011;67177;47.240;-1.546;2023-04-25T10:51:15;3.60;;;1.30;;
77984;SDS011;67177;47.240;-1.546;2023-04-25T10:54:03;3.88;;;1.20;;
77984;SDS011;67177;47.240;-1.546;2023-04-25T10:56:30;3.58;;;1.10;;
77984;SDS011;67177;47.240;-1.546;2023-04-25T11:01:38;4.07;;;1.40;;
77984;SDS011;67177;47.240;-1.546;2023-04-25T11:06:51;3.90;;;1.00;;
77984;SDS011;67177;47.240;-1.546;2023-04-25T11:09:29;4.20;;;1.20;;
77984;SDS011;67177;47.240;-1.546;2023-04-25T11:11:58;3.80;;;1.05;;
77984;SDS011;67177;47.240;-1.546;2023-04-25T11:14:25;4.07;;;1.20;;
77984;SDS011;67177;47.240;-1.546;2023-04-25T11:16:58;3.65;;;1.17;;
77984;SDS011;67177;47.240;-1.546;2023-04-25T11:19:25;3.55;;;1.02;;
77984;SDS011;67177;47.240;-1.546;2023-04-25T11:21:54;3.30;;;1.30;;
77984;SDS011;67177;47.240;-1.546;2023-04-25T11:24:25;3.33;;;1.00;;
77984;SDS011;67177;47.240;-1.546;2023-04-25T11:26:52;3.70;;;1.00;;
77984;SDS011;67177;47.240;-1.546;2023-04-25T11:29:18;4.10;;;1.25;;
77984;SDS011;67177;47.240;-1.546;2023-04-25T11:31:46;3.80;;;0.90;;
77984;SDS011;67177;47.240;-1.546;2023-04-25T11:34:16;4.17;;;0.90;;
77984;SDS011;67177;47.240;-1.546;2023-04-25T11:36:42;3.75;;;1.17;;
77984;SDS011;67177;47.240;-1.546;2023-04-25T11:39:09;3.17;;;0.95;;
77984;SDS011;67177;47.240;-1.546;2023-04-25T11:41:36;3.10;;;1.00;;
77984;SDS011;67177;47.240;-1.546;2023-04-25T11:44:03;3.63;;;1.15;;
77984;SDS011;67177;47.240;-1.546;2023-04-25T11:46:29;3.40;;;0.95;;
77984;SDS011;67177;47.240;-1.546;2023-04-25T11:48:55;3.05;;;1.00;;
77984;SDS011;67177;47.240;-1.546;2023-04-25T11:51:22;2.57;;;0.83;;
77984;SDS011;67177;47.240;-1.546;2023-04-25T11:53:47;3.05;;;1.00;;
77984;SDS011;67177;47.240;-1.546;2023-04-25T11:56:13;3.63;;;0.93;;
77984;SDS011;67177;47.240;-1.546;2023-04-25T11:59:01;6.10;;;1.27;;
77984;SDS011;67177;47.240;-1.546;2023-04-25T12:01:37;4.45;;;1.10;;
77984;SDS011;67177;47.240;-1.546;2023-04-25T12:04:37;3.60;;;1.27;;
77984;SDS011;67177;47.240;-1.546;2023-04-25T12:06:56;4.55;;;1.20;;
77984;SDS011;67177;47.240;-1.546;2023-04-25T12:09:31;3.93;;;1.00;;
77984;SDS011;67177;47.240;-1.546;2023-04-25T12:11:58;4.38;;;1.48;;
77984;SDS011;67177;47.240;-1.546;2023-04-25T12:14:28;3.33;;;1.27;;
77984;SDS011;67177;47.240;-1.546;2023-04-25T12:16:59;3.78;;;1.20;;
77984;SDS011;67177;47.240;-1.546;2023-04-25T12:19:26;3.43;;;1.10;;
77984;SDS011;67177;47.240;-1.546;2023-04-25T12:21:58;3.80;;;1.20;;
77984;SDS011;67177;47.240;-1.546;2023-04-25T12:24:25;2.80;;;1.00;;
77984;SDS011;67177;47.240;-1.546;2023-04-25T12:26:59;4.13;;;1.10;;
77984;SDS011;67177;47.240;-1.546;2023-04-25T12:29:27;3.97;;;1.15;;
77984;SDS011;67177;47.240;-1.546;2023-04-25T12:31:54;3.80;;;1.20;;
77984;SDS011;67177;47.240;-1.546;2023-04-25T12:34:21;3.83;;;1.20;;
77984;SDS011;67177;47.240;-1.546;2023-04-25T12:36:47;3.65;;;1.10;;
77984;SDS011;67177;47.240;-1.546;2023-04-25T12:39:17;3.45;;;1.25;;
77984;SDS011;67177;47.240;-1.546;2023-04-25T12:41:47;3.53;;;1.00;;
77984;SDS011;67177;47.240;-1.546;2023-04-25T12:44:15;5.23;;;1.37;;
77984;SDS011;67177;47.240;-1.546;2023-04-25T12:46:42;3.97;;;1.20;;
77984;SDS011;67177;47.240;-1.546;2023-04-25T12:49:07;5.18;;;1.30;;
77984;SDS011;67177;47.240;-1.546;2023-04-25T12:51:33;4.37;;;1.20;;
77984;SDS011;67177;47.240;-1.546;2023-04-25T12:54:00;3.67;;;1.13;;
77984;SDS011;67177;47.240;-1.546;2023-04-25T12:56:27;3.33;;;1.05;;
77984;SDS011;67177;47.240;-1.546;2023-04-25T12:58:52;3.15;;;1.00;;
77984;SDS011;67177;47.240;-1.546;2023-04-25T13:01:19;3.22;;;1.10;;
77984;SDS011;67177;47.240;-1.546;2023-04-25T13:03:45;3.03;;;0.90;;
77984;SDS011;67177;47.240;-1.546;2023-04-25T13:06:11;3.00;;;0.80;;
77984;SDS011;67177;47.240;-1.546;2023-04-25T13:08:38;2.65;;;0.90;;
77984;SDS011;67177;47.240;-1.546;2023-04-25T13:11:04;3.05;;;0.80;;
77984;SDS011;67177;47.240;-1.546;2023-04-25T13:13:31;3.63;;;1.10;;
77984;SDS011;67177;47.240;-1.546;2023-04-25T13:15:57;3.30;;;1.00;;
77984;SDS011;67177;47.240;-1.546;2023-04-25T13:18:23;3.35;;;1.08;;
77984;SDS011;67177;47.240;-1.546;2023-04-25T13:20:52;2.70;;;0.90;;
77984;SDS011;67177;47.240;-1.546;2023-04-25T13:23:18;2.85;;;0.80;;
77984;SDS011;67177;47.240;-1.546;2023-04-25T13:25:45;2.97;;;0.90;;
77984;SDS011;67177;47.240;-1.546;2023-04-25T13:28:11;2.93;;;0.90;;
77984;SDS011;67177;47.240;-1.546;2023-04-25T13:30:37;3.35;;;1.10;;
77984;SDS011;67177;47.240;-1.546;2023-04-25T13:33:03;4.20;;;1.30;;
77984;SDS011;67177;47.240;-1.546;2023-04-25T13:35:29;3.53;;;1.10;;
77984;SDS011;67177;47.240;-1.546;2023-04-25T13:37:55;4.13;;;1.30;;
77984;SDS011;67177;47.240;-1.546;2023-04-25T13:40:21;4.67;;;1.20;;
77984;SDS011;67177;47.240;-1.546;2023-04-25T13:42:47;3.92;;;1.02;;
77984;SDS011;67177;47.240;-1.546;2023-04-25T13:45:13;3.50;;;1.05;;
77984;SDS011;67177;47.240;-1.546;2023-04-25T13:47:38;4.33;;;1.33;;
77984;SDS011;67177;47.240;-1.546;2023-04-25T13:50:04;3.40;;;1.00;;
77984;SDS011;67177;47.240;-1.546;2023-04-25T13:52:31;3.90;;;1.20;;
77984;SDS011;67177;47.240;-1.546;2023-04-25T13:54:57;4.72;;;1.20;;
77984;SDS011;67177;47.240;-1.546;2023-04-25T13:57:23;3.63;;;1.00;;
77984;SDS011;67177;47.240;-1.546;2023-04-25T13:59:49;3.03;;;0.90;;
77984;SDS011;67177;47.240;-1.546;2023-04-25T14:02:15;3.63;;;1.10;;
77984;SDS011;67177;47.240;-1.546;2023-04-25T14:04:41;3.83;;;1.10;;
77984;SDS011;67177;47.240;-1.546;2023-04-25T14:07:07;3.13;;;0.90;;
77984;SDS011;67177;47.240;-1.546;2023-04-25T14:09:33;3.88;;;1.00;;
77984;SDS011;67177;47.240;-1.546;2023-04-25T14:11:59;2.92;;;0.80;;
77984;SDS011;67177;47.240;-1.546;2023-04-25T14:14:25;2.77;;;0.83;;
77984;SDS011;67177;47.240;-1.546;2023-04-25T14:16:51;3.05;;;1.10;;
77984;SDS011;67177;47.240;-1.546;2023-04-25T14:19:19;2.67;;;0.80;;
77984;SDS011;67177;47.240;-1.546;2023-04-25T14:21:46;3.47;;;0.90;;
77984;SDS011;67177;47.240;-1.546;2023-04-25T14:24:11;2.70;;;0.90;;
77984;SDS011;67177;47.240;-1.546;2023-04-25T14:26:38;2.60;;;0.90;;
77984;SDS011;67177;47.240;-1.546;2023-04-25T14:29:04;3.50;;;1.00;;
77984;SDS011;67177;47.240;-1.546;2023-04-25T14:31:32;2.25;;;0.70;;
77984;SDS011;67177;47.240;-1.546;2023-04-25T14:33:58;2.73;;;1.00;;
77984;SDS011;67177;47.240;-1.546;2023-04-25T14:36:24;4.00;;;1.27;;
77984;SDS011;67177;47.240;-1.546;2023-04-25T14:38:51;3.88;;;1.15;;
77984;SDS011;67177;47.240;-1.546;2023-04-25T14:41:17;2.97;;;1.00;;
77984;SDS011;67177;47.240;-1.546;2023-04-25T14:43:42;3.43;;;0.97;;